Espace membre
Imprimable
Challenges > Delhalle - Châtelet, 09/06/2019, BEL - La Châtelettaine
Liste des rapports > Delhalle - 14km - Classement
Recherche: Page: [1]
55 Entrées
 
Les réclamations ne sont plus acceptées, les résultats sont considérés comme définitifs.
RangNrNomAgeIOCLigueEquipeRéelTempsTkmMoy.ScrPtsLocalité
1.17FDESILLE NICOLE52BELRIWARIWA1:02:501:02:534:29 13.4161848LA HULPE
2.382FWOUTERS CATHERINE52BELHERV1:07:121:07:174:48 12.53102755XHENDELESSE
3.466FDEMOULIN BRIGITTE59BELSMACRCNAMUR1:11:451:11:535:07 11.73157654LUSTIN
4.483FDE WOOT ANTOINETTE55BELESM1:13:081:13:165:13 11.51183619MARCHIENNE-AU-PONT
5.187FLEGRAND SYLVIANE58BELJACOJACO1:13:061:13:285:14 11.48185618MONCEAU-IMBRECHIES
6.487FVANDEWEYER ANJA50BELHUY1:14:351:14:475:20 11.28206584ANTHEIT
7.1172FNAHON SYLVIE51BELWACO1:15:261:15:365:23 11.15214568NEUVILLE-EN-CONDROZ
8.970FTUMELAIRE SOPHIE52BELAAC UKJAMES1:15:271:15:455:24 11.13217565RAMILLIES
9.302FMUNAUT CARINE56BELWACO1:17:081:17:195:31 10.91235532LIMONT
10.664FDROMELET BÉRANGÈRE51BELSPTW1:18:061:18:295:36 10.74256506WAVRE
11.607FVIGNERON SABINE56BELRCNAMUR1:18:101:18:305:36 10.74257504JAMBES
12.341FHOLVOET DOMINIQUE54BELSPTWAVRE1:20:021:20:395:45 10.46288461OTTIGNIES
13.1107FLIEVYNS CHRISTINE55BEL1:22:061:22:195:52 10.24310421MONT SUR MARCHIENNE
14.639FBOURMORCK CARINE52BELFLEU1:22:341:22:495:54 10.18313414AISEAU
15.1349FHENROT NATHALIE50BELJCPMFJCPMF1:22:521:23:245:56 10.11321405
16.1304FVANWEDDINGEN ANNE56BELMYSTEREMYSTERE1:23:181:23:335:57 10.09322399
17.827FLIBERTIAUX ANNE56BELRCNAMUR1:23:171:23:385:58 10.08324398NAMUR
18.1199FVAN DROOGENBROEK YOLANDE57BELFOR MYFOR MY1:23:361:23:575:59 10.05333388
19.200FCORNET ANNE53BELGAG1:23:561:24:276:01 9.99339380JEMEPPE-SUR-SAMBRE
20.1101FDELEPIERRE CATHERINE54BEL1:25:141:25:226:05 9.88348359BOUFFIOUX
21.1268FDE BELDER JOELLE58BELZATACZATAC1:25:421:26:106:08 9.79358348CLAVIER
22.1240FMICHEL MARTINE58BELZATACZATAC1:25:431:26:106:08 9.79359347
23.1306FLORGE PASCALE57BEL1:26:281:26:466:11 9.72362336
24.76FMORRIS NICOLA-ELIZABETH59BELENJAMBEE1:27:151:27:296:14 9.64373320BRUXELLES
25.1167FSTERCKX FABIENNE51BELJC HSHJC HSH1:27:471:28:026:16 9.58380310
26.391FVAUSE FABIENNE54BELRCNAMUR1:27:461:28:066:17 9.57383308MALONNE
27.182FBAETEN EDITH59BELRCNAMUR1:27:461:28:066:17 9.57384307NAMUR
28.861FMALIKIAN MARIE51BELMYSTERE1:28:001:28:146:17 9.56387302BRUXELLES
29.121FLEFOUR FLORENCE50BELJACO1:28:011:28:246:18 9.54390300ROCROI
30.472FDAWAGNE ROSELINE53BELJCPMF FLV1:28:281:29:006:20 9.48396291LESVE
31.185FVICO MARIELLE51BELRCNAMUR1:28:511:29:116:21 9.46398286NAMUR
32.1095FSEL FABIENNE55BEL1:29:051:29:196:22 9.44399283MARCINELLE
33.1256FAKAL EMEL53BELAISEAU1:29:111:29:406:23 9.41401280
34.186FHILLEN HILDE51BELAVN1:29:221:29:446:24 9.40403277MEER
35.1324FJURION MURIEL50BEL1:29:381:30:066:25 9.36405273
36.123FJULLIEN JUDITH50BELJCPMF FV1:29:371:30:096:25 9.35406272TAMINES
37.721FTONON FLORENCE53BELJCPMF FLV1:29:381:30:116:25 9.35407271SART-SAINT-LAURENT
38.1278FROMBAUX SABRINA51BELBJBBJB1:31:461:32:256:35 9.12429234
39.826FLAMERANT CHANTAL55BELOXYGENE1:32:351:33:006:38 9.07435221BIERCEE
40.1142FLONGVAL FLORENCE53BELUAC1:33:051:33:116:38 9.05436215FRASNES-LEZ-GOSSELIES
41.881FHOURMAN GWENDOLINE52BELENJAMBEE1:33:271:34:026:42 8.97440209TERVUREN
42.629FROLAND CATHY55BELACLO1:35:401:36:016:50 8.78446181GODARVILLE
43.1303FDE GRANDE DOMINIQUE52BEL1:36:031:36:276:52 8.74451174CHIMAY
44.505FFORTIN ANNE54FRAENJAMBEE1:37:211:37:576:59 8.61455158BRUXELLES
45.179FROUSSEAUX AGNES50BEL1:38:491:39:157:04 8.50463138GODINNE
46.1183FLESS SORAYA53BELCSFMYSTERE1:40:151:40:467:11 8.37472118BRUXELLES
47.1132FCERINI CARLA52BELESM1:41:231:41:567:16 8.27477104FONTAINE
48.298FMELCHIOR FABIENNE55BELNAC1:42:161:42:417:19 8.2148491NIVELLES
49.1089FDRUAUX VÉRONIQUE53BEL1:42:281:43:017:20 8.1948688LEERNES
50.504FRENDERS ANNE59BELENJAMBEE1:42:591:43:367:23 8.1448881BRUXELLES
51.1091FSEVERINO FRANCA54BEL1:43:211:43:567:24 8.1148977FONTAINE L'EVÊQUE
52.1158FPIERRE VIVIANE53BELUAC1:43:561:44:127:25 8.0949270REVES
53.475FBRIBOSIA LAURENCE53BEL1:46:331:47:117:38 7.8750040RIXENSART
54.1083FTAVERNIER NATHALIE54BEL1:52:211:52:358:01 7.495043FORCHIES LA MARCHE
55.928FVAN WYMERSCH SABINE53BELCSFMYSTERE1:53:391:53:558:07 7.405062DROGENBOS
DNF: abandon; DSQ: disqualifié; Vitesse en km/h
Page: [1]